createdAt,value
2024-02-02T05:00:15.156Z,101157.47
2024-02-02T05:03:17.812Z,101171.66
2024-02-02T05:06:20.043Z,101174.06
2024-02-02T05:09:22.594Z,101181.78
2024-02-02T05:12:24.775Z,101179.94
2024-02-02T05:15:27.298Z,101172.37
2024-02-02T05:18:29.582Z,101175.25
2024-02-02T05:21:32.243Z,101182.97
2024-02-02T05:24:44.288Z,101181.47
2024-02-02T05:27:48.405Z,101174.78
2024-02-02T05:30:50.580Z,101181.78
2024-02-02T05:33:53.107Z,101195.28
2024-02-02T05:36:55.399Z,101191.94
2024-02-02T05:39:57.889Z,101208.12
2024-02-02T05:43:00.965Z,101209.87
2024-02-02T05:46:03.649Z,101209.59
2024-02-02T05:49:06.290Z,101208.34
2024-02-02T05:52:10.620Z,101221.84
2024-02-02T05:55:13.061Z,101222.81
2024-02-02T05:58:15.608Z,101230.88
2024-02-02T06:01:17.974Z,101239.03
2024-02-02T06:04:20.509Z,101231.62
2024-02-02T06:07:22.866Z,101248.13
2024-02-02T06:10:25.394Z,101245.84
2024-02-02T06:13:27.584Z,101261.63
2024-02-02T06:16:30.094Z,101261.91
2024-02-02T06:19:32.485Z,101252.81
2024-02-02T06:22:35.714Z,101256.75
2024-02-02T06:25:38.277Z,101267.06
2024-02-02T06:28:40.840Z,101270.53
2024-02-02T06:31:43.615Z,101264.63
2024-02-02T06:34:46.298Z,101278.72
2024-02-02T06:37:48.819Z,101277.81
2024-02-02T06:40:51.332Z,101290.50
2024-02-02T06:43:53.668Z,101293.72
2024-02-02T06:46:56.313Z,101287.19
2024-02-02T06:49:59.080Z,101291.28
2024-02-02T06:53:03.163Z,101294.59
2024-02-02T06:56:34.781Z,101284.91
2024-02-02T06:59:38.132Z,101296.72
2024-02-02T07:02:40.324Z,101315.50
2024-02-02T07:05:44.820Z,101303.28
2024-02-02T07:08:47.517Z,101300.53
2024-02-02T07:11:55.712Z,101309.00
2024-02-02T07:15:04.951Z,101314.72
2024-02-02T07:18:34.133Z,101317.94
2024-02-02T07:21:38.484Z,101324.28
2024-02-02T07:24:43.825Z,101319.13
2024-02-02T07:27:52.238Z,101311.81
2024-02-02T07:30:59.099Z,101312.50
2024-02-02T07:34:43.925Z,101317.41
2024-02-02T07:37:50.222Z,101320.06
2024-02-02T07:40:56.627Z,101324.34
2024-02-02T07:44:01.262Z,101325.94
2024-02-02T07:47:03.783Z,101331.13
2024-02-02T07:50:07.362Z,101327.22
2024-02-02T07:53:10.055Z,101340.00
2024-02-02T07:56:14.151Z,101331.75
2024-02-02T07:59:16.385Z,101337.59
2024-02-02T08:02:20.019Z,101332.56
2024-02-02T08:05:31.267Z,101335.16
2024-02-02T08:08:34.597Z,101320.72
2024-02-02T08:11:37.477Z,101317.97
2024-02-02T08:14:41.034Z,101316.06
2024-02-02T08:17:43.894Z,101296.88
2024-02-02T08:20:47.705Z,101303.00
2024-02-02T08:23:50.282Z,101306.25
2024-02-02T08:26:52.556Z,101294.84
2024-02-02T08:29:55.466Z,101309.75
2024-02-02T08:32:58.027Z,101308.22
2024-02-02T08:36:00.719Z,101303.00
2024-02-02T08:39:03.737Z,101313.62
2024-02-02T08:42:15.532Z,101316.59
2024-02-02T08:45:43.829Z,101315.37
2024-02-02T08:48:49.531Z,101315.94
2024-02-02T08:51:52.501Z,101330.94
2024-02-02T08:54:55.370Z,101326.06
2024-02-02T08:57:57.519Z,101323.75
2024-02-02T09:01:00.519Z,101326.31
2024-02-02T09:04:05.706Z,101321.72
2024-02-02T09:07:13.469Z,101323.91
2024-02-02T09:10:37.577Z,101319.62
2024-02-02T09:13:44.992Z,101324.38
2024-02-02T09:16:52.531Z,101331.47
2024-02-02T09:19:57.064Z,101336.66
2024-02-02T09:23:00.500Z,101336.72
2024-02-02T09:26:12.477Z,101339.19
2024-02-02T09:29:14.960Z,101358.50
2024-02-02T09:32:17.885Z,101367.47
2024-02-02T09:35:41.632Z,101366.56
2024-02-02T09:38:58.684Z,101357.75
2024-02-02T09:42:01.279Z,101359.53
2024-02-02T09:45:21.770Z,101372.75
2024-02-02T09:48:48.868Z,101367.19
2024-02-02T09:52:10.207Z,101369.91
2024-02-02T09:55:40.876Z,101376.66
2024-02-02T09:59:04.083Z,101371.44
2024-02-02T10:02:27.432Z,101368.13
2024-02-02T10:05:48.658Z,101380.53
2024-02-02T10:08:58.813Z,101378.97
2024-02-02T10:12:07.722Z,101376.41
2024-02-02T10:15:12.647Z,101366.28
2024-02-02T10:19:00.174Z,101375.87
2024-02-02T10:22:41.207Z,101373.00
2024-02-02T10:26:10.339Z,101355.50
2024-02-02T10:29:28.553Z,101376.84
2024-02-02T10:33:07.425Z,101359.91
2024-02-02T10:36:28.308Z,101357.22
2024-02-02T10:39:57.294Z,101340.12
2024-02-02T10:43:36.794Z,101339.94
2024-02-02T10:46:46.877Z,101354.16
2024-02-02T10:50:12.504Z,101339.41
2024-02-02T10:53:44.851Z,101347.03
2024-02-02T10:57:09.813Z,101332.84
2024-02-02T11:00:25.674Z,101339.16
2024-02-02T11:03:46.205Z,101359.09
2024-02-02T11:07:23.731Z,101331.56
2024-02-02T11:10:32.392Z,101318.78
2024-02-02T11:14:05.111Z,101340.94
2024-02-02T11:17:27.398Z,101361.84
2024-02-02T11:20:40.070Z,101451.69
2024-02-02T11:23:52.811Z,101500.00
2024-02-02T11:27:05.367Z,101562.16
2024-02-02T11:30:18.155Z,101656.56
2024-02-02T11:33:39.684Z,101914.94
2024-02-02T11:36:59.755Z,101993.06
2024-02-02T11:40:09.434Z,102015.63
2024-02-02T11:43:12.964Z,102114.94
2024-02-02T11:46:18.749Z,101982.37
2024-02-02T11:49:30.081Z,101993.44
2024-02-02T11:52:40.836Z,101995.31
2024-02-02T11:55:46.675Z,101971.38
2024-02-02T11:58:57.544Z,102044.53
2024-02-02T12:02:14.707Z,102089.31
2024-02-02T12:05:21.838Z,102038.44
2024-02-02T12:08:33.374Z,101974.88
2024-02-02T12:11:44.584Z,102059.25
2024-02-02T12:14:54.070Z,101975.72
2024-02-02T12:17:58.576Z,101835.88
2024-02-02T12:21:02.619Z,101816.69
2024-02-02T12:24:05.546Z,101588.66
2024-02-02T12:27:09.394Z,101341.44
2024-02-02T12:30:13.166Z,101154.16
2024-02-02T12:33:15.842Z,101100.63
2024-02-02T12:36:22.379Z,101100.72
2024-02-02T12:39:24.735Z,101146.66
2024-02-02T12:42:27.325Z,101193.84
2024-02-02T12:45:32.521Z,101210.22
2024-02-02T12:48:35.259Z,101214.62
2024-02-02T12:51:37.628Z,101219.53
2024-02-02T12:54:41.950Z,101239.53
2024-02-02T12:57:44.249Z,101223.00
2024-02-02T13:00:47.054Z,101221.88
2024-02-02T13:03:49.594Z,101227.69
2024-02-02T13:06:52.409Z,101243.75
2024-02-02T13:09:58.769Z,101244.66
2024-02-02T13:13:14.232Z,101246.69
2024-02-02T13:16:24.324Z,101245.81
2024-02-02T13:19:37.792Z,101239.34
2024-02-02T13:22:41.707Z,101223.97
2024-02-02T13:25:44.292Z,101214.62
2024-02-02T13:28:54.005Z,101220.06
2024-02-02T13:31:56.737Z,101198.28
2024-02-02T13:35:00.656Z,101208.94
2024-02-02T13:38:04.131Z,101211.25
2024-02-02T13:41:07.939Z,101213.47
2024-02-02T13:44:13.246Z,101206.91
2024-02-02T13:47:29.614Z,101205.34
2024-02-02T13:50:51.731Z,101216.87
2024-02-02T13:53:54.544Z,101208.12
2024-02-02T13:56:57.180Z,101221.19
2024-02-02T14:00:00.830Z,101225.75
2024-02-02T14:03:11.596Z,101218.31
2024-02-02T14:06:15.056Z,101214.41
2024-02-02T14:09:22.655Z,101217.94
2024-02-02T14:12:25.239Z,101224.22
2024-02-02T14:15:27.548Z,101208.41
2024-02-02T14:18:30.800Z,101218.25
2024-02-02T14:21:35.347Z,101220.13
2024-02-02T14:24:48.299Z,101221.44
2024-02-02T14:27:50.623Z,101224.78
2024-02-02T14:31:01.785Z,101230.97
2024-02-02T14:34:04.617Z,101232.06
2024-02-02T14:37:09.593Z,101243.16
2024-02-02T14:40:12.554Z,101236.44
2024-02-02T14:43:15.915Z,101240.56
2024-02-02T14:46:21.822Z,101234.31
2024-02-02T14:49:26.174Z,101230.53
2024-02-02T14:52:28.899Z,101226.50
2024-02-02T14:55:33.780Z,101230.97
2024-02-02T14:58:36.375Z,101222.19
2024-02-02T15:01:40.381Z,101231.53
2024-02-02T15:04:42.661Z,101225.97
2024-02-02T15:07:45.260Z,101224.63
2024-02-02T15:10:48.549Z,101226.22
2024-02-02T15:13:50.996Z,101241.00
2024-02-02T15:16:53.174Z,101233.63
2024-02-02T15:19:57.910Z,101230.37
2024-02-02T15:23:00.257Z,101223.50
2024-02-02T15:26:02.937Z,101232.69
2024-02-02T15:29:05.675Z,101233.31
2024-02-02T15:32:08.197Z,101236.94
2024-02-02T15:35:14.626Z,101244.25
2024-02-02T15:38:17.232Z,101245.50
2024-02-02T15:41:19.616Z,101240.66
2024-02-02T15:44:22.393Z,101237.41
2024-02-02T15:47:25.353Z,101230.13
2024-02-02T15:50:27.845Z,101231.25
2024-02-02T15:53:29.973Z,101235.50
2024-02-02T15:56:32.772Z,101228.72
2024-02-02T15:59:34.919Z,101236.19
2024-02-02T16:02:37.573Z,101226.19
2024-02-02T16:05:40.076Z,101220.53
2024-02-02T16:08:42.234Z,101217.72
2024-02-02T16:11:44.710Z,101218.53
2024-02-02T16:14:46.915Z,101207.53
2024-02-02T16:17:49.472Z,101205.28
2024-02-02T16:20:51.695Z,101192.69
2024-02-02T16:23:54.142Z,101195.72
2024-02-02T16:26:56.320Z,101196.25
2024-02-02T16:29:58.925Z,101185.38
2024-02-02T16:33:02.648Z,101197.06
2024-02-02T16:36:05.927Z,101195.41
2024-02-02T16:39:15.293Z,101197.66
2024-02-02T16:42:18.395Z,101199.59
